Time;durP1;ratioP1;P1;durP2;ratioP2;P2;SDS_P1;SDS_P2;PMS_P1;PMS_P2;Temp;Humidity;BMP_temperature;BMP_pressure;BME280_temperature;BME280_humidity;BME280_pressure;Samples;Min_cycle;Max_cycle;Signal;HPM_P1;HPM_P2
2024/01/02 00:01:41;;;;;;;7.55;2.17;;;;;;;5.87;100.00;99951.53;5075856;28;20476;-89
2024/01/02 00:04:07;;;;;;;7.78;2.22;;;;;;;5.89;100.00;99949.78;5075120;28;20036;-89
2024/01/02 00:06:32;;;;;;;5.67;1.97;;;;;;;5.86;100.00;99944.66;5075865;28;20103;-88
2024/01/02 00:09:00;;;;;;;9.77;2.65;;;;;;;5.95;100.00;99936.88;5075057;28;20052;-87
2024/01/02 00:14:21;;;;;;;7.55;2.13;;;;;;;5.91;100.00;99930.03;5075541;28;20099;-87
2024/01/02 00:16:46;;;;;;;10.10;2.30;;;;;;;6.00;100.00;99923.97;5075610;28;20039;-89
2024/01/02 00:19:13;;;;;;;7.10;2.20;;;;;;;5.97;100.00;99913.66;5075770;28;20020;-89
2024/01/02 00:21:48;;;;;;;6.03;2.45;;;;;;;5.98;100.00;99895.59;5075616;28;20031;-88
2024/01/02 00:24:13;;;;;;;6.93;2.10;;;;;;;6.03;100.00;99869.81;5075756;28;20507;-88
2024/01/02 00:26:40;;;;;;;7.90;2.10;;;;;;;6.00;100.00;99872.44;5075303;28;20041;-88
2024/01/02 00:29:08;;;;;;;6.05;2.20;;;;;;;6.05;100.00;99872.41;5075437;28;20029;-87
2024/01/02 00:31:33;;;;;;;9.23;2.35;;;;;;;6.07;100.00;99868.91;5075253;28;20033;-88
2024/01/02 00:33:58;;;;;;;5.60;2.07;;;;;;;6.12;100.00;99841.41;5075342;28;20598;-88
2024/01/02 00:36:24;;;;;;;7.78;2.03;;;;;;;6.16;100.00;99825.00;5074550;28;20032;-88
2024/01/02 00:38:49;;;;;;;5.88;1.90;;;;;;;6.12;100.00;99809.59;5075481;28;20353;-89
2024/01/02 00:41:14;;;;;;;4.60;1.50;;;;;;;6.11;100.00;99803.63;5075849;28;20060;-89
2024/01/02 00:43:40;;;;;;;8.80;1.90;;;;;;;6.16;100.00;99786.34;5075015;28;20025;-89
2024/01/02 00:46:08;;;;;;;3.50;1.80;;;;;;;6.20;100.00;99787.16;5075651;28;20074;-91
2024/01/02 00:48:33;;;;;;;6.07;1.80;;;;;;;6.27;100.00;99770.75;5075632;28;20033;-89
2024/01/02 00:51:00;;;;;;;7.43;1.90;;;;;;;6.28;100.00;99754.44;5075501;28;20404;-90
2024/01/02 00:53:26;;;;;;;5.25;1.95;;;;;;;6.21;100.00;99737.34;5074934;28;20024;-89
2024/01/02 00:55:51;;;;;;;4.67;1.50;;;;;;;6.21;100.00;99731.34;5075770;28;20423;-89
2024/01/02 00:58:17;;;;;;;6.37;1.63;;;;;;;6.26;100.00;99725.25;5075493;28;20021;-90
2024/01/02 01:00:42;;;;;;;5.80;1.60;;;;;;;6.32;100.00;99719.97;5075414;28;20021;-89
2024/01/02 01:03:07;;;;;;;4.57;1.48;;;;;;;6.33;100.00;99713.97;5075452;28;20472;-89
2024/01/02 01:05:33;;;;;;;3.40;1.27;;;;;;;6.29;100.00;99696.00;5075022;28;20247;-89
2024/01/02 01:07:58;;;;;;;3.20;1.27;;;;;;;6.24;100.00;99682.34;5074819;28;20119;-89
2024/01/02 01:10:23;;;;;;;5.57;1.50;;;;;;;6.25;100.00;99677.16;5074841;28;20081;-88
2024/01/02 01:12:51;;;;;;;4.15;1.35;;;;;;;6.33;100.00;99671.88;5077718;28;20028;-89
2024/01/02 01:15:17;;;;;;;1.70;1.08;;;;;;;6.22;100.00;99656.59;5083319;28;20025;-90
2024/01/02 01:17:42;;;;;;;4.87;1.60;;;;;;;6.28;100.00;99666.81;5085922;28;20035;-88
2024/01/02 01:20:08;;;;;;;4.53;1.23;;;;;;;6.43;100.00;99649.38;5087964;28;20032;-88
2024/01/02 01:22:34;;;;;;;4.85;1.45;;;;;;;6.29;100.00;99652.19;5078929;28;20481;-89
2024/01/02 01:24:59;;;;;;;3.30;1.30;;;;;;;6.42;100.00;99634.78;5075550;28;20021;-90
2024/01/02 01:27:24;;;;;;;4.40;1.43;;;;;;;6.28;100.00;99617.84;5074695;28;20028;-89
2024/01/02 01:29:52;;;;;;;3.37;1.13;;;;;;;6.32;100.00;99609.19;5074944;28;20043;-88
2024/01/02 01:32:17;;;;;;;4.00;1.52;;;;;;;6.36;100.00;99604.81;5073694;28;20102;-88
2024/01/02 01:34:43;;;;;;;4.20;1.20;;;;;;;6.42;100.00;99596.13;5074069;28;20032;-88
2024/01/02 01:37:08;;;;;;;3.63;1.17;;;;;;;6.30;100.00;99574.00;5074498;28;20121;-88
2024/01/02 01:39:33;;;;;;;1.50;0.90;;;;;;;6.30;100.00;99569.72;5056011;28;20033;-88
2024/01/02 01:42:02;;;;;;;1.80;0.80;;;;;;;6.30;100.00;99567.16;5074318;28;20393;-89
2024/01/02 01:44:28;;;;;;;4.13;1.50;;;;;;;6.46;100.00;99567.72;5073990;28;20516;-88
2024/01/02 01:46:53;;;;;;;3.27;0.80;;;;;;;6.41;100.00;99541.16;5074622;28;20045;-88
2024/01/02 01:49:19;;;;;;;3.35;1.10;;;;;;;6.46;100.00;99541.94;5074475;28;20024;-88
2024/01/02 01:51:46;;;;;;;1.47;0.90;;;;;;;6.43;100.00;99528.22;5074221;28;20020;-88
2024/01/02 01:54:18;;;;;;;0.95;0.80;;;;;;;6.44;100.00;99499.00;5090715;22;20433;-88
2024/01/02 01:56:53;;;;;;;1.90;1.00;;;;;;;6.42;100.00;99496.47;5114607;28;20032;-88
2024/01/02 01:59:19;;;;;;;2.55;0.98;;;;;;;6.30;100.00;99478.69;5115455;28;20027;-89
2024/01/02 02:01:49;;;;;;;1.98;0.82;;;;;;;6.29;100.00;99485.56;5114703;28;20499;-89
2024/01/02 02:04:15;;;;;;;1.70;0.70;;;;;;;6.51;100.00;99479.13;5116642;28;20028;-88
2024/01/02 02:07:01;;;;;;;1.30;0.60;;;;;;;6.43;100.00;99468.97;5118703;28;20475;-88
2024/01/02 02:09:32;;;;;;;1.90;0.65;;;;;;;6.36;100.00;99451.94;5118340;28;20474;-89
2024/01/02 02:12:09;;;;;;;0.80;0.63;;;;;;;6.41;100.00;99445.81;5118651;28;20032;-89
2024/01/02 02:14:35;;;;;;;2.55;0.80;;;;;;;6.46;100.00;99456.03;5118083;28;20020;-89
2024/01/02 02:17:19;;;;;;;1.17;0.50;;;;;;;6.51;100.00;99440.44;5118370;28;20015;-88
2024/01/02 02:19:44;;;;;;;0.95;0.70;;;;;;;6.61;100.00;99429.06;5118592;28;20027;-89
2024/01/02 02:22:13;;;;;;;3.40;0.97;;;;;;;6.52;100.00;99413.81;5117922;28;20026;-87
2024/01/02 02:24:38;;;;;;;0.73;0.68;;;;;;;6.49;100.00;99422.47;5117834;28;20544;-88
2024/01/02 02:27:08;;;;;;;2.80;0.60;;;;;;;6.57;100.00;99402.50;5118521;28;20047;-88
2024/01/02 02:29:34;;;;;;;0.80;0.60;;;;;;;6.55;100.00;99396.53;5117881;28;20114;-89
2024/01/02 02:31:59;;;;;;;1.50;0.70;;;;;;;6.50;100.00;99395.81;5117755;28;20054;-90
2024/01/02 02:34:24;;;;;;;1.13;0.60;;;;;;;6.50;100.00;99388.06;5118580;28;20023;-89
2024/01/02 02:36:49;;;;;;;1.27;0.50;;;;;;;6.51;100.00;99381.19;5118211;28;20020;-88
2024/01/02 02:39:15;;;;;;;1.17;0.70;;;;;;;6.74;100.00;99371.19;5118023;28;20038;-88
2024/01/02 02:41:40;;;;;;;0.50;0.50;;;;;;;6.60;100.00;99350.03;5118013;28;20027;-89
2024/01/02 02:44:05;;;;;;;2.23;0.63;;;;;;;6.59;100.00;99348.34;5118154;28;20349;-89
2024/01/02 02:46:31;;;;;;;0.60;0.53;;;;;;;6.64;100.00;99329.28;5118185;28;20106;-89
2024/01/02 02:48:56;;;;;;;0.70;0.50;;;;;;;6.68;100.00;99329.22;5118073;28;20106;-89
2024/01/02 02:51:21;;;;;;;0.57;0.57;;;;;;;6.64;100.00;99323.31;5117810;28;20023;-88
2024/01/02 02:53:46;;;;;;;0.50;0.50;;;;;;;6.63;100.00;99304.44;5117322;28;20024;-90
2024/01/02 02:56:15;;;;;;;1.60;0.60;;;;;;;6.69;100.00;99311.16;5117471;28;20028;-89
2024/01/02 02:58:41;;;;;;;0.30;0.30;;;;;;;6.67;100.00;99291.44;5117704;28;20020;-89
2024/01/02 03:01:06;;;;;;;0.67;0.47;;;;;;;6.67;100.00;99271.69;5117255;28;20016;-88
2024/01/02 03:03:31;;;;;;;0.43;0.43;;;;;;;6.61;100.00;99270.09;5116469;28;20022;-89
2024/01/02 03:05:56;;;;;;;0.77;0.40;;;;;;;6.62;100.00;99279.53;5118036;28;20027;-88
2024/01/02 03:08:22;;;;;;;0.47;0.40;;;;;;;6.68;100.00;99267.34;5117511;28;20024;-88
2024/01/02 03:10:50;;;;;;;0.83;0.60;;;;;;;6.65;100.00;99238.19;5117461;28;20022;-90
2024/01/02 03:13:15;;;;;;;0.80;0.35;;;;;;;6.63;100.00;99229.66;5122796;22;20121;-90
2024/01/02 03:15:41;;;;;;;0.37;0.20;;;;;;;6.60;100.00;99216.84;5116483;28;20031;-89
2024/01/02 03:18:06;;;;;;;0.40;0.40;;;;;;;6.87;100.00;99217.00;5117607;28;20370;-89
2024/01/02 03:20:32;;;;;;;0.87;0.50;;;;;;;6.85;100.00;99193.00;5116741;28;20019;-89
2024/01/02 03:22:57;;;;;;;0.20;0.20;;;;;;;6.71;100.00;99201.09;5117346;28;20026;-89
2024/01/02 03:25:22;;;;;;;1.38;0.55;;;;;;;6.77;100.00;99197.50;5117411;28;20031;-89
2024/01/02 03:27:48;;;;;;;0.50;0.50;;;;;;;6.77;100.00;99188.06;5117821;28;20027;-89
2024/01/02 03:30:13;;;;;;;0.52;0.52;;;;;;;6.74;100.00;99180.41;5117318;28;20160;-89
2024/01/02 03:32:38;;;;;;;0.27;0.27;;;;;;;6.81;100.00;99175.91;5117533;28;20023;-90
2024/01/02 03:35:04;;;;;;;0.30;0.30;;;;;;;6.73;100.00;99163.22;5117977;28;20426;-91
2024/01/02 03:37:29;;;;;;;0.50;0.50;;;;;;;6.73;100.00;99142.59;5117407;28;20059;-90
2024/01/02 03:39:55;;;;;;;0.30;0.30;;;;;;;6.76;100.00;99144.25;5117087;28;20431;-90
2024/01/02 03:42:20;;;;;;;0.30;0.20;;;;;;;6.80;100.00;99162.19;5117851;28;20047;-91
2024/01/02 03:44:45;;;;;;;0.55;0.20;;;;;;;6.88;100.00;99164.53;5117075;28;20471;-90
2024/01/02 03:47:13;;;;;;;0.30;0.30;;;;;;;6.82;100.00;99151.84;5117143;28;20016;-91
2024/01/02 03:49:42;;;;;;;0.45;0.35;;;;;;;6.94;100.00;99151.50;5116879;28;20024;-90
2024/01/02 03:52:07;;;;;;;0.32;0.30;;;;;;;6.85;100.00;99144.03;5116075;28;20437;-90
2024/01/02 03:54:33;;;;;;;0.30;0.30;;;;;;;6.90;100.00;99138.72;5117749;28;20015;-90
2024/01/02 03:56:58;;;;;;;0.70;0.33;;;;;;;6.94;100.00;99130.00;5123651;28;20026;-91
2024/01/02 03:59:23;;;;;;;0.20;0.20;;;;;;;6.93;100.00;99120.56;5126658;28;20028;-90
2024/01/02 04:01:49;;;;;;;1.45;0.30;;;;;;;7.11;100.00;99122.66;5128730;28;20024;-88
2024/01/02 04:04:14;;;;;;;0.28;0.28;;;;;;;7.07;100.00;99120.22;5123414;28;20028;-91
2024/01/02 04:06:40;;;;;;;0.80;0.30;;;;;;;7.07;100.00;99115.03;5116413;28;20039;-91
2024/01/02 04:09:05;;;;;;;1.37;0.30;;;;;;;7.18;100.00;99110.41;5117039;28;20036;-89
2024/01/02 04:11:30;;;;;;;0.20;0.20;;;;;;;7.07;100.00;99112.47;5116363;28;20035;-90
2024/01/02 04:13:56;;;;;;;0.30;0.30;;;;;;;7.17;100.00;99111.31;5116056;28;20135;-91
2024/01/02 04:16:21;;;;;;;0.30;0.30;;;;;;;7.12;100.00;99102.84;5116576;28;20023;-90
2024/01/02 04:18:50;;;;;;;0.40;0.40;;;;;;;7.13;100.00;99099.38;5116697;28;20028;-89
2024/01/02 04:21:15;;;;;;;0.57;0.40;;;;;;;7.15;100.00;99102.75;5116295;28;20033;-90
2024/01/02 04:23:40;;;;;;;0.50;0.50;;;;;;;7.19;100.00;99093.19;5116016;28;20023;-89
2024/01/02 04:26:06;;;;;;;0.40;0.40;;;;;;;7.17;100.00;99088.09;5115724;28;20073;-89
2024/01/02 04:28:31;;;;;;;0.50;0.50;;;;;;;7.20;100.00;99085.44;5115819;28;20034;-89
2024/01/02 04:30:56;;;;;;;0.47;0.40;;;;;;;7.27;100.00;99080.91;5116590;28;20024;-90
2024/01/02 04:33:21;;;;;;;0.20;0.20;;;;;;;7.29;100.00;99084.28;5116189;28;20023;-90
2024/01/02 04:35:47;;;;;;;0.23;0.23;;;;;;;7.32;100.00;99084.19;5115895;28;20478;-89
2024/01/02 04:38:12;;;;;;;0.40;0.40;;;;;;;7.39;100.00;99082.28;5115923;28;20126;-89
2024/01/02 04:40:40;;;;;;;0.27;0.27;;;;;;;7.39;100.00;99077.13;5115187;28;20158;-89
2024/01/02 04:43:05;;;;;;;0.40;0.40;;;;;;;7.53;100.00;99074.09;5115738;28;20164;-90
2024/01/02 04:45:31;;;;;;;0.40;0.40;;;;;;;7.48;100.00;99081.16;5115931;28;20047;-90
2024/01/02 04:47:59;;;;;;;0.53;0.53;;;;;;;7.58;100.00;99070.50;5116052;28;20030;-90
2024/01/02 04:50:24;;;;;;;0.40;0.40;;;;;;;7.54;100.00;99078.38;5115502;28;20085;-90
2024/01/02 04:52:52;;;;;;;0.43;0.40;;;;;;;7.56;100.00;99066.28;5115849;28;20057;-90
2024/01/02 04:55:19;;;;;;;0.32;0.32;;;;;;;7.64;100.00;99063.44;5116198;28;20122;-88
2024/01/02 04:57:44;;;;;;;0.45;0.30;;;;;;;7.65;100.00;99070.31;5113891;28;20035;-90
2024/01/02 05:00:10;;;;;;;0.30;0.30;;;;;;;7.69;100.00;99067.56;5115034;28;20093;-89
2024/01/02 05:02:35;;;;;;;0.30;0.30;;;;;;;7.68;100.00;99065.03;5114803;28;20201;-89
2024/01/02 05:05:00;;;;;;;0.20;0.20;;;;;;;7.72;100.00;99075.22;5115460;28;20065;-88
2024/01/02 05:07:26;;;;;;;0.20;0.20;;;;;;;7.74;100.00;99064.84;5115127;28;20058;-89
2024/01/02 05:09:51;;;;;;;0.30;0.30;;;;;;;7.77;100.00;99069.06;5114291;28;20073;-88
2024/01/02 05:12:17;;;;;;;0.30;0.30;;;;;;;7.85;100.00;99077.41;5115069;28;20152;-88
2024/01/02 05:14:43;;;;;;;0.20;0.20;;;;;;;7.89;100.00;99081.59;5114392;28;20048;-88
2024/01/02 05:17:09;;;;;;;0.40;0.30;;;;;;;7.95;100.00;99076.19;5114175;28;20031;-88
2024/01/02 05:19:37;;;;;;;0.35;0.35;;;;;;;8.00;100.00;99078.63;5114605;28;20019;-88
2024/01/02 05:22:03;;;;;;;0.20;0.20;;;;;;;8.04;100.00;99077.63;5114635;28;20030;-88
2024/01/02 05:24:28;;;;;;;0.43;0.40;;;;;;;8.09;100.00;99080.06;5114366;28;20103;-88
2024/01/02 05:26:54;;;;;;;0.20;0.20;;;;;;;8.14;100.00;99073.84;5114372;28;20047;-88
2024/01/02 05:29:19;;;;;;;0.30;0.30;;;;;;;8.19;100.00;99074.56;5114847;28;20031;-88
2024/01/02 05:31:44;;;;;;;0.73;0.40;;;;;;;8.23;100.00;99071.84;5113993;28;20023;-88
2024/01/02 05:34:10;;;;;;;0.43;0.43;;;;;;;8.27;100.00;99066.53;5114700;28;20050;-88
2024/01/02 05:36:38;;;;;;;0.23;0.23;;;;;;;8.34;100.00;99080.06;5114328;28;20055;-87
2024/01/02 05:39:03;;;;;;;0.38;0.38;;;;;;;8.39;100.00;99064.44;5112994;28;20027;-89
2024/01/02 05:41:29;;;;;;;0.33;0.33;;;;;;;8.42;100.00;99074.66;5113938;28;20050;-87
2024/01/02 05:43:54;;;;;;;0.23;0.23;;;;;;;8.43;100.00;99066.84;5114397;28;20016;-87
2024/01/02 05:46:19;;;;;;;0.40;0.40;;;;;;;8.54;100.00;99068.25;5114051;28;20101;-88
2024/01/02 05:48:45;;;;;;;0.40;0.40;;;;;;;8.57;100.00;99073.28;5114423;28;20046;-88
2024/01/02 05:51:10;;;;;;;0.67;0.40;;;;;;;8.63;100.00;99080.84;5115095;28;20024;-88
2024/01/02 05:53:35;;;;;;;0.40;0.40;;;;;;;8.68;100.00;99078.09;5113483;28;20028;-87
2024/01/02 05:56:00;;;;;;;0.47;0.47;;;;;;;8.69;100.00;99097.88;5113926;28;20020;-87
2024/01/02 05:58:26;;;;;;;0.37;0.20;;;;;;;8.75;100.00;99105.41;5114410;28;20051;-88
2024/01/02 06:00:51;;;;;;;0.30;0.30;;;;;;;8.83;100.00;99102.56;5113453;28;20024;-88
2024/01/02 06:03:16;;;;;;;0.50;0.50;;;;;;;8.83;100.00;99102.56;5113925;28;20023;-87
2024/01/02 06:05:44;;;;;;;0.37;0.37;;;;;;;8.90;100.00;99091.94;5113767;28;20023;-88
2024/01/02 06:08:10;;;;;;;0.43;0.43;;;;;;;8.90;100.00;99099.69;5113257;28;20031;-88
2024/01/02 06:10:36;;;;;;;0.50;0.50;;;;;;;8.93;100.00;99116.84;5114025;28;20031;-87
2024/01/02 06:13:04;;;;;;;0.20;0.20;;;;;;;8.97;100.00;99126.19;5113224;28;20114;-87
2024/01/02 06:15:30;;;;;;;0.30;0.25;;;;;;;9.01;100.00;99116.56;5114201;28;20024;-87
2024/01/02 06:17:55;;;;;;;0.23;0.23;;;;;;;9.03;100.00;99123.38;5113918;28;20034;-88
2024/01/02 06:20:20;;;;;;;0.27;0.27;;;;;;;9.04;100.00;99121.66;5113835;28;20057;-87
2024/01/02 06:22:45;;;;;;;0.30;0.30;;;;;;;9.05;100.00;99126.75;5113661;28;20103;-87
2024/01/02 06:25:11;;;;;;;0.40;0.40;;;;;;;9.06;100.00;99127.63;5113629;28;20100;-87
2024/01/02 06:27:40;;;;;;;0.30;0.30;;;;;;;9.09;100.00;99136.09;5113345;28;20028;-87
2024/01/02 06:30:05;;;;;;;0.50;0.50;;;;;;;9.14;100.00;99148.00;5114042;28;20120;-88
2024/01/02 06:32:34;;;;;;;1.10;0.60;;;;;;;9.14;100.00;99153.19;5114694;28;20465;-88
2024/01/02 06:35:20;;;;;;;0.60;0.60;;;;;;;9.06;100.00;99136.22;5113790;28;20019;-88
2024/01/02 06:40:50;;;;;;;1.40;1.30;;;;;;;9.06;100.00;99131.03;5111886;28;19960;-87
2024/01/02 06:43:24;;;;;;;1.75;1.65;;;;;;;9.10;100.00;99132.63;5118813;28;20024;-87
2024/01/02 06:45:49;;;;;;;3.28;2.10;;;;;;;9.13;100.00;99123.88;5127471;28;20008;-93
2024/01/02 06:48:15;;;;;;;2.47;2.13;;;;;;;9.27;100.00;99152.72;5117356;28;20058;-92
2024/01/02 06:50:52;;;;;;;3.13;2.30;;;;;;;9.20;100.00;99145.22;5122413;28;20037;-92
2024/01/02 06:53:17;;;;;;;5.82;3.10;;;;;;;9.23;100.00;99138.19;5118954;28;20043;-92
2024/01/02 06:55:48;;;;;;;4.03;2.90;;;;;;;9.32;100.00;99160.28;5116993;28;20375;-92
2024/01/02 06:58:22;;;;;;;4.90;3.10;;;;;;;9.28;100.00;99145.75;5118142;28;20019;-90
2024/01/02 07:01:15;;;;;;;4.60;3.30;;;;;;;9.38;100.00;99169.59;5118304;28;20463;-92
2024/01/02 07:03:48;;;;;;;3.78;3.00;;;;;;;9.34;100.00;99155.91;5087186;28;20053;-92
2024/01/02 07:06:26;;;;;;;5.47;3.30;;;;;;;9.33;100.00;99153.38;5098107;28;20020;-92
2024/01/02 07:09:36;;;;;;;5.75;3.72;;;;;;;9.38;100.00;99173.00;5097693;28;20060;-90
2024/01/02 07:12:10;;;;;;;5.28;3.63;;;;;;;9.37;100.00;99171.31;5088826;28;20502;-91
2024/01/02 07:15:00;;;;;;;6.10;3.72;;;;;;;9.51;100.00;99194.13;5093892;28;20048;-92
2024/01/02 07:20:54;;;;;;;8.48;4.28;;;;;;;9.52;100.00;99172.47;5097308;28;20045;-91
2024/01/02 07:23:28;;;;;;;9.27;4.30;;;;;;;9.57;100.00;99187.84;5097755;28;20028;-91
2024/01/02 07:26:06;;;;;;;7.03;4.00;;;;;;;9.47;100.00;99176.13;5089959;28;20020;-90
2024/01/02 07:28:47;;;;;;;5.93;3.92;;;;;;;9.48;100.00;99183.88;5094380;28;20062;-90
2024/01/02 07:31:15;;;;;;;9.77;4.50;;;;;;;9.54;100.00;99199.16;5095930;28;20027;-89
2024/01/02 07:33:52;;;;;;;7.57;4.35;;;;;;;9.58;100.00;99205.06;5096652;28;20024;-85
2024/01/02 07:36:18;;;;;;;6.97;4.07;;;;;;;9.62;100.00;99203.22;5145010;22;20078;-84
2024/01/02 07:38:43;;;;;;;6.77;4.10;;;;;;;9.64;100.00;99204.84;5074949;28;20024;-88
2024/01/02 07:41:08;;;;;;;10.80;4.73;;;;;;;9.73;100.00;99217.47;5075829;28;20116;-87
2024/01/02 07:43:34;;;;;;;8.60;4.47;;;;;;;9.69;100.00;99225.41;5075196;28;20063;-87
2024/01/02 07:45:59;;;;;;;7.87;4.63;;;;;;;9.67;100.00;99220.28;5074955;28;20032;-87
2024/01/02 07:48:24;;;;;;;6.17;3.73;;;;;;;9.70;100.00;99224.50;5075608;28;20106;-87
2024/01/02 07:50:50;;;;;;;5.33;3.60;;;;;;;9.70;100.00;99229.69;5074695;28;20039;-87
2024/01/02 07:53:21;;;;;;;7.17;3.70;;;;;;;9.69;100.00;99233.19;5074800;28;20024;-88
2024/01/02 07:55:47;;;;;;;6.05;3.70;;;;;;;9.70;100.00;99234.88;5075439;28;20483;-87
2024/01/02 07:58:12;;;;;;;6.43;3.53;;;;;;;9.70;100.00;99238.28;5075077;28;20020;-87
2024/01/02 08:00:37;;;;;;;8.40;4.00;;;;;;;9.72;100.00;99240.84;5074289;28;20071;-87
2024/01/02 08:03:03;;;;;;;6.90;3.67;;;;;;;9.74;100.00;99241.59;5074823;28;20031;-85
2024/01/02 08:05:28;;;;;;;5.80;3.47;;;;;;;9.72;100.00;99233.06;5073966;28;20019;-85
2024/01/02 08:07:53;;;;;;;5.97;3.50;;;;;;;9.72;100.00;99238.25;5075491;28;20020;-85
2024/01/02 08:10:19;;;;;;;5.07;3.30;;;;;;;9.71;100.00;99231.38;5075831;28;20048;-85
2024/01/02 08:12:44;;;;;;;7.37;3.67;;;;;;;9.71;100.00;99236.56;5074627;28;20048;-86
2024/01/02 08:15:09;;;;;;;5.03;3.13;;;;;;;9.71;100.00;99239.16;5075807;28;20020;-86
2024/01/02 08:17:35;;;;;;;7.27;3.20;;;;;;;9.72;100.00;99246.03;5075805;28;20020;-86
2024/01/02 08:20:00;;;;;;;4.80;3.20;;;;;;;9.72;100.00;99239.06;5074148;28;20086;-86
2024/01/02 08:22:26;;;;;;;5.43;3.27;;;;;;;9.70;100.00;99246.06;5075303;28;20056;-86
2024/01/02 08:24:54;;;;;;;4.80;2.73;;;;;;;9.79;100.00;99254.41;5074692;28;20047;-86
2024/01/02 08:27:19;;;;;;;5.22;2.92;;;;;;;9.73;100.00;99258.91;5074184;28;20021;-86
2024/01/02 08:29:44;;;;;;;5.27;3.10;;;;;;;9.76;100.00;99270.88;5074675;28;20070;-86
2024/01/02 08:32:10;;;;;;;5.43;2.87;;;;;;;9.77;100.00;99261.38;5074804;28;20020;-87
2024/01/02 08:34:35;;;;;;;5.43;2.93;;;;;;;9.80;100.00;99258.66;5073315;28;20115;-87
2024/01/02 08:37:00;;;;;;;5.17;2.70;;;;;;;9.77;100.00;99259.63;5074526;28;20481;-87
2024/01/02 08:39:25;;;;;;;4.00;2.57;;;;;;;9.81;100.00;99260.34;5129808;22;20112;-86
2024/01/02 08:41:51;;;;;;;4.33;2.73;;;;;;;9.80;100.00;99249.16;5094290;28;20063;-87
2024/01/02 08:44:16;;;;;;;4.97;2.77;;;;;;;9.82;100.00;99249.09;5094635;28;20028;-87
2024/01/02 08:46:42;;;;;;;4.17;2.40;;;;;;;9.82;100.00;99241.31;5094913;28;20017;-87
2024/01/02 08:49:08;;;;;;;3.33;2.43;;;;;;;9.84;100.00;99240.38;5093727;28;20051;-86
2024/01/02 08:51:33;;;;;;;3.83;2.35;;;;;;;9.86;100.00;99242.91;5094253;28;20020;-86
2024/01/02 08:53:59;;;;;;;2.90;2.10;;;;;;;9.84;100.00;99230.00;5094501;28;20410;-87
2024/01/02 08:56:24;;;;;;;3.27;2.20;;;;;;;9.84;100.00;99232.59;5093595;28;20480;-87
2024/01/02 08:58:49;;;;;;;3.10;2.40;;;;;;;9.88;100.00;99230.75;5093957;28;20035;-87
2024/01/02 09:01:17;;;;;;;3.70;2.20;;;;;;;9.90;100.00;99221.16;5094182;28;20036;-86
2024/01/02 09:03:43;;;;;;;3.90;2.30;;;;;;;9.92;100.00;99219.34;5093518;28;20035;-87
2024/01/02 09:06:11;;;;;;;4.07;2.70;;;;;;;9.97;100.00;99212.22;5094651;28;20028;-87
2024/01/02 09:08:36;;;;;;;2.88;2.38;;;;;;;9.98;100.00;99218.25;5093471;28;20021;-86
2024/01/02 09:11:02;;;;;;;2.87;2.40;;;;;;;10.01;100.00;99221.59;5093532;28;20020;-88
2024/01/02 09:13:30;;;;;;;4.00;2.60;;;;;;;10.07;100.00;99220.50;5093452;28;20490;-88
2024/01/02 09:15:55;;;;;;;3.75;2.50;;;;;;;10.05;100.00;99210.19;5092989;28;20027;-87
2024/01/02 09:18:21;;;;;;;3.40;2.60;;;;;;;10.08;100.00;99198.84;5094310;28;20020;-88
2024/01/02 09:20:47;;;;;;;2.80;2.50;;;;;;;10.11;100.00;99192.72;5098976;28;20028;-87
2024/01/02 09:23:30;;;;;;;3.80;2.50;;;;;;;10.10;100.00;99189.25;5100195;28;20415;-88
2024/01/02 09:26:00;;;;;;;3.08;2.40;;;;;;;10.10;100.00;99188.44;5099621;28;20028;-87
2024/01/02 09:28:25;;;;;;;2.47;2.20;;;;;;;10.10;100.00;99191.03;5095547;28;20064;-87
2024/01/02 09:30:51;;;;;;;3.43;2.27;;;;;;;10.15;100.00;99183.88;5093383;28;20483;-87
2024/01/02 09:33:17;;;;;;;5.53;2.37;;;;;;;10.14;100.00;99180.47;5094026;28;20024;-87
2024/01/02 09:35:44;;;;;;;4.35;2.10;;;;;;;10.13;100.00;99186.56;5094197;28;20040;-87
2024/01/02 09:38:09;;;;;;;2.53;2.23;;;;;;;10.18;100.00;99189.81;5105469;22;20050;-88
2024/01/02 09:40:43;;;;;;;2.27;2.07;;;;;;;10.16;100.00;99188.16;5113889;28;20081;-87
2024/01/02 09:43:38;;;;;;;2.13;2.00;;;;;;;10.16;100.00;99189.03;5112834;28;20043;-88
2024/01/02 09:46:11;;;;;;;2.20;2.00;;;;;;;10.16;100.00;99194.22;5107487;28;20077;-87
2024/01/02 09:48:45;;;;;;;2.25;2.03;;;;;;;10.16;100.00;99189.03;5114535;28;20023;-86
2024/01/02 09:51:38;;;;;;;2.10;1.90;;;;;;;10.13;100.00;99183.97;5113744;28;20015;-87
2024/01/02 09:54:40;;;;;;;1.80;1.70;;;;;;;10.19;100.00;99195.84;5114823;28;20035;-88
2024/01/02 09:57:18;;;;;;;1.80;1.70;;;;;;;10.18;100.00;99194.13;5123275;28;20031;-87
2024/01/02 10:00:11;;;;;;;1.77;1.67;;;;;;;10.19;100.00;99196.66;5134565;28;20359;-87
2024/01/02 10:02:55;;;;;;;1.70;1.60;;;;;;;10.20;100.00;99195.75;5135194;28;20023;-88
2024/01/02 10:05:55;;;;;;;2.13;1.42;;;;;;;10.20;100.00;99192.34;5134509;28;20344;-88
2024/01/02 10:08:44;;;;;;;2.03;1.70;;;;;;;10.21;100.00;99199.22;5133772;28;20023;-91
2024/01/02 10:11:31;;;;;;;1.25;1.25;;;;;;;10.19;100.00;99199.25;5135001;28;20039;-87
2024/01/02 10:14:17;;;;;;;1.60;1.50;;;;;;;10.21;100.00;99196.63;5126173;28;20491;-86
2024/01/02 10:17:14;;;;;;;0.97;0.97;;;;;;;10.17;100.00;99189.84;5133685;28;20028;-86
2024/01/02 10:19:55;;;;;;;1.17;1.17;;;;;;;10.24;100.00;99190.47;5133154;28;20383;-86
2024/01/02 10:22:25;;;;;;;1.38;1.27;;;;;;;10.24;100.00;99193.91;5134091;28;20034;-85
2024/01/02 10:24:59;;;;;;;1.30;1.20;;;;;;;10.23;100.00;99163.69;5134044;27;20100;-84
2024/01/02 10:28:02;;;;;;;0.80;0.80;;;;;;;10.27;100.00;99175.63;5126004;27;20112;-87
2024/01/02 10:30:32;;;;;;;1.10;1.08;;;;;;;10.28;100.00;99166.09;5117529;28;20032;-86
2024/01/02 10:33:17;;;;;;;0.88;0.88;;;;;;;10.30;100.00;99161.69;5117552;28;20375;-86
2024/01/02 10:36:04;;;;;;;1.00;1.00;;;;;;;10.31;100.00;99153.84;5116224;28;20429;-84
2024/01/02 10:38:43;;;;;;;1.30;1.20;;;;;;;10.33;100.00;99165.00;5122892;27;20047;-87
2024/01/02 10:41:25;;;;;;;0.93;0.93;;;;;;;10.34;100.00;99161.50;5136880;27;20034;-86
2024/01/02 10:44:10;;;;;;;1.00;1.00;;;;;;;10.36;100.00;99151.06;5107959;27;20750;-87
2024/01/02 10:46:53;;;;;;;1.63;1.20;;;;;;;10.45;100.00;99152.47;5116597;28;20028;-87
2024/01/02 10:49:34;;;;;;;1.02;1.00;;;;;;;10.38;100.00;99144.09;5112884;28;20494;-87
2024/01/02 10:52:12;;;;;;;1.20;1.10;;;;;;;10.39;100.00;99150.97;5116305;28;20062;-84
2024/01/02 10:54:52;;;;;;;1.15;0.90;;;;;;;10.39;100.00;99138.00;5114029;28;20055;-85
2024/01/02 10:57:34;;;;;;;0.98;0.98;;;;;;;10.37;100.00;99132.00;5116206;27;20088;-84
2024/01/02 11:00:08;;;;;;;0.93;0.93;;;;;;;10.38;100.00;99136.31;5116247;28;20088;-85
2024/01/02 11:02:51;;;;;;;0.60;0.60;;;;;;;10.37;100.00;99132.00;5107385;28;20039;-85
2024/01/02 11:05:30;;;;;;;0.60;0.60;;;;;;;10.38;100.00;99132.88;5112987;28;20015;-85
2024/01/02 11:08:19;;;;;;;0.57;0.57;;;;;;;10.35;100.00;99126.91;5100679;28;20022;-86
2024/01/02 11:10:57;;;;;;;0.80;0.80;;;;;;;10.31;100.00;99125.31;5059513;28;20036;-86
2024/01/02 11:13:23;;;;;;;0.80;0.70;;;;;;;10.36;100.00;99117.34;5116507;28;20050;-85
2024/01/02 11:15:55;;;;;;;0.70;0.70;;;;;;;10.35;100.00;99123.44;5115532;28;20195;-85
2024/01/02 11:18:23;;;;;;;0.60;0.60;;;;;;;10.29;100.00;99121.13;5116621;28;20020;-86
2024/01/02 11:20:55;;;;;;;0.75;0.40;;;;;;;10.26;100.00;99118.66;5116222;28;20418;-85
2024/01/02 11:23:24;;;;;;;0.45;0.45;;;;;;;10.25;100.00;99107.41;5114895;28;20467;-86
2024/01/02 11:26:07;;;;;;;0.30;0.30;;;;;;;10.32;100.00;99084.66;5115176;28;20038;-86
2024/01/02 11:28:36;;;;;;;0.50;0.50;;;;;;;10.23;100.00;99100.63;5135284;27;20387;-87
2024/01/02 11:31:04;;;;;;;0.65;0.40;;;;;;;10.20;100.00;99092.06;5135434;27;20015;-88
2024/01/02 11:33:45;;;;;;;0.40;0.40;;;;;;;10.19;100.00;99092.13;5136366;27;20072;-87
2024/01/02 11:36:25;;;;;;;0.43;0.43;;;;;;;10.17;100.00;99083.56;5135080;27;20536;-87
2024/01/02 11:38:50;;;;;;;0.40;0.40;;;;;;;10.17;100.00;99080.97;5136060;27;20364;-88
2024/01/02 11:41:40;;;;;;;0.50;0.50;;;;;;;10.16;100.00;99067.19;5137240;27;20057;-88
2024/01/02 11:44:20;;;;;;;0.80;0.40;;;;;;;10.14;100.00;99068.13;5135393;27;20042;-87
2024/01/02 11:46:51;;;;;;;0.60;0.60;;;;;;;10.11;100.00;99053.56;5136675;27;20387;-88
2024/01/02 11:49:17;;;;;;;0.50;0.50;;;;;;;10.13;100.00;99064.72;5136583;27;20390;-88
2024/01/02 11:51:54;;;;;;;0.60;0.60;;;;;;;10.12;100.00;99050.06;5136885;27;20037;-88